createdAt,value
2018-06-19T00:02:22.355Z,17.10
2018-06-19T00:04:50.625Z,17.10
2018-06-19T00:07:18.881Z,17.10
2018-06-19T00:09:47.176Z,17.00
2018-06-19T00:12:15.432Z,17.00
2018-06-19T00:14:43.704Z,17.00
2018-06-19T00:17:12.040Z,17.00
2018-06-19T00:19:44.716Z,17.00
2018-06-19T00:22:13.005Z,17.00
2018-06-19T00:24:41.240Z,17.10
2018-06-19T00:27:09.511Z,17.20
2018-06-19T00:29:37.933Z,17.20
2018-06-19T00:32:06.260Z,17.20
2018-06-19T00:34:34.588Z,17.30
2018-06-19T00:37:02.852Z,17.30
2018-06-19T00:41:59.106Z,17.30
2018-06-19T00:44:27.386Z,17.30
2018-06-19T00:46:56.067Z,17.40
2018-06-19T00:49:24.333Z,17.40
2018-06-19T00:51:52.597Z,17.30
2018-06-19T00:54:20.845Z,17.30
2018-06-19T00:56:53.428Z,17.40
2018-06-19T00:59:21.782Z,17.40
2018-06-19T01:01:50.328Z,17.40
2018-06-19T01:04:18.606Z,17.50
2018-06-19T01:06:46.960Z,17.50
2018-06-19T01:09:16.098Z,17.50
2018-06-19T01:11:44.372Z,17.50
2018-06-19T01:14:12.653Z,17.50
2018-06-19T01:16:40.915Z,17.50
2018-06-19T01:19:09.164Z,17.60
2018-06-19T01:21:37.663Z,17.60
2018-06-19T01:24:05.953Z,17.60
2018-06-19T01:26:34.193Z,17.60
2018-06-19T01:29:02.615Z,17.60
2018-06-19T01:31:30.863Z,17.60
2018-06-19T01:33:59.127Z,17.60
2018-06-19T01:36:27.388Z,17.50
2018-06-19T01:38:55.840Z,17.50
2018-06-19T01:41:24.152Z,17.60
2018-06-19T01:43:52.429Z,17.60
2018-06-19T01:46:20.676Z,17.60
2018-06-19T01:48:48.960Z,17.60
2018-06-19T01:51:17.221Z,17.60
2018-06-19T01:53:45.479Z,17.60
2018-06-19T01:56:13.741Z,17.60
2018-06-19T01:58:41.997Z,17.60
2018-06-19T02:01:10.265Z,17.70
2018-06-19T02:03:38.496Z,17.70
2018-06-19T02:06:06.769Z,17.70
2018-06-19T02:08:35.005Z,17.70
2018-06-19T02:11:03.257Z,17.60
2018-06-19T02:13:31.512Z,17.60
2018-06-19T02:15:59.772Z,17.60
2018-06-19T02:18:28.038Z,17.60
2018-06-19T02:20:56.755Z,17.60
2018-06-19T02:23:25.000Z,17.60
2018-06-19T02:25:53.324Z,17.60
2018-06-19T02:28:21.608Z,17.60
2018-06-19T02:30:49.909Z,17.60
2018-06-19T02:33:18.204Z,17.60
2018-06-19T02:35:46.473Z,17.60
2018-06-19T02:38:14.800Z,17.60
2018-06-19T02:40:43.184Z,17.50
2018-06-19T02:43:11.467Z,17.50
2018-06-19T02:45:39.848Z,17.50
2018-06-19T02:50:36.306Z,17.60
2018-06-19T02:53:04.838Z,17.50
2018-06-19T02:55:33.117Z,17.60
2018-06-19T02:58:01.564Z,17.50
2018-06-19T03:00:30.056Z,17.60
2018-06-19T03:02:58.279Z,17.60
2018-06-19T03:05:26.539Z,17.60
2018-06-19T03:07:54.824Z,17.60
2018-06-19T03:10:23.105Z,17.50
2018-06-19T03:12:51.377Z,17.50
2018-06-19T03:15:19.641Z,17.50
2018-06-19T03:17:47.931Z,17.50
2018-06-19T03:20:16.278Z,17.50
2018-06-19T03:22:46.613Z,17.50
2018-06-19T03:25:14.827Z,17.50
2018-06-19T03:27:43.149Z,17.50
2018-06-19T03:30:11.542Z,17.50
2018-06-19T03:32:39.740Z,17.40
2018-06-19T03:35:08.004Z,17.40
2018-06-19T03:37:36.277Z,17.50
2018-06-19T03:40:04.556Z,17.50
2018-06-19T03:42:32.832Z,17.50
2018-06-19T03:45:01.097Z,17.50
2018-06-19T03:47:29.359Z,17.50
2018-06-19T03:49:57.848Z,17.50
2018-06-19T03:52:26.116Z,17.50
2018-06-19T03:54:54.402Z,17.50
2018-06-19T03:57:22.685Z,17.50
2018-06-19T03:59:50.931Z,17.50
2018-06-19T04:02:19.227Z,17.50
2018-06-19T04:04:47.536Z,17.50
2018-06-19T04:07:15.788Z,17.50
2018-06-19T04:09:44.053Z,17.50
2018-06-19T04:12:12.518Z,17.50
2018-06-19T04:14:40.796Z,17.50
2018-06-19T04:17:13.336Z,17.60
2018-06-19T04:19:41.662Z,17.60
2018-06-19T04:22:09.919Z,17.60
2018-06-19T04:24:38.248Z,17.60
2018-06-19T04:27:06.487Z,17.60
2018-06-19T04:29:34.813Z,17.60
2018-06-19T04:32:03.045Z,17.60
2018-06-19T04:34:31.314Z,17.60
2018-06-19T04:36:59.563Z,17.60
2018-06-19T04:39:27.910Z,17.70
2018-06-19T04:41:56.249Z,17.70
2018-06-19T04:44:24.436Z,17.70
2018-06-19T04:46:52.688Z,17.80
2018-06-19T04:49:20.953Z,17.80
2018-06-19T04:51:49.518Z,17.80
2018-06-19T04:54:17.769Z,17.90
2018-06-19T04:56:46.060Z,17.90
2018-06-19T04:59:14.293Z,17.90
2018-06-19T05:01:42.548Z,18.00
2018-06-19T05:04:10.799Z,18.00
2018-06-19T05:06:39.085Z,17.90
2018-06-19T05:09:10.009Z,18.00
2018-06-19T05:11:38.232Z,18.00
2018-06-19T05:14:06.804Z,18.00
2018-06-19T05:16:35.057Z,18.10
2018-06-19T05:19:03.366Z,18.00
2018-06-19T05:21:31.640Z,18.00
2018-06-19T05:23:59.972Z,18.00
2018-06-19T05:26:28.245Z,18.00
2018-06-19T05:28:56.872Z,18.00
2018-06-19T05:31:25.183Z,18.00
2018-06-19T05:33:53.463Z,18.00
2018-06-19T05:36:21.772Z,18.00
2018-06-19T05:38:50.235Z,18.00
2018-06-19T05:41:18.554Z,18.10
2018-06-19T05:43:46.862Z,18.20
2018-06-19T05:46:15.196Z,18.10
2018-06-19T05:48:43.452Z,18.20
2018-06-19T05:51:11.700Z,18.20
2018-06-19T05:53:39.932Z,18.20
2018-06-19T05:56:09.455Z,18.20
2018-06-19T05:58:38.382Z,18.30
2018-06-19T06:01:06.955Z,18.30
2018-06-19T06:03:35.500Z,18.40
2018-06-19T06:08:32.726Z,18.30
2018-06-19T06:11:01.734Z,18.30
2018-06-19T06:13:30.487Z,18.30
2018-06-19T06:15:58.731Z,18.40
2018-06-19T06:18:27.908Z,18.50
2018-06-19T06:20:56.364Z,18.50
2018-06-19T06:23:24.656Z,18.50
2018-06-19T06:25:53.163Z,18.50
2018-06-19T06:28:21.535Z,18.50
2018-06-19T06:30:50.167Z,18.60
2018-06-19T06:33:18.517Z,18.70
2018-06-19T06:35:46.991Z,18.70
2018-06-19T06:38:16.023Z,18.80
2018-06-19T06:40:45.518Z,18.80
2018-06-19T06:43:13.930Z,18.80
2018-06-19T06:45:42.306Z,18.80
2018-06-19T06:48:10.955Z,18.80
2018-06-19T06:50:40.168Z,18.80
2018-06-19T06:53:09.690Z,18.90
2018-06-19T06:55:40.490Z,18.90
2018-06-19T06:58:09.533Z,18.90
2018-06-19T07:00:38.810Z,19.00
2018-06-19T07:03:14.440Z,19.10
2018-06-19T07:05:43.483Z,19.20
2018-06-19T07:08:11.732Z,19.20
2018-06-19T07:10:40.664Z,19.20
2018-06-19T07:13:09.271Z,19.30
2018-06-19T07:15:37.982Z,19.30
2018-06-19T07:18:07.156Z,19.30
2018-06-19T07:20:35.996Z,19.20
2018-06-19T07:23:04.844Z,19.30
2018-06-19T07:25:33.413Z,19.30
2018-06-19T07:28:02.323Z,19.40
2018-06-19T07:30:30.907Z,19.40
2018-06-19T07:32:59.155Z,19.40
2018-06-19T07:35:28.314Z,19.40
2018-06-19T07:37:56.605Z,19.40
2018-06-19T07:40:24.788Z,19.40
2018-06-19T07:42:53.056Z,19.50
2018-06-19T07:45:21.396Z,19.50
2018-06-19T07:47:49.683Z,19.50
2018-06-19T07:50:17.940Z,19.50
2018-06-19T07:52:46.211Z,19.50
2018-06-19T07:55:14.468Z,19.60
2018-06-19T07:57:49.308Z,19.60
2018-06-19T08:00:17.659Z,19.60
2018-06-19T08:02:45.928Z,19.60
2018-06-19T08:05:14.257Z,19.60
2018-06-19T08:07:42.534Z,19.70
2018-06-19T08:10:10.807Z,19.80
2018-06-19T08:12:39.049Z,20.00
2018-06-19T08:15:07.336Z,20.20
2018-06-19T08:17:35.583Z,20.40
2018-06-19T08:20:03.871Z,20.50
2018-06-19T08:22:32.165Z,20.60
2018-06-19T08:25:00.420Z,20.70
2018-06-19T08:27:28.659Z,20.80
2018-06-19T08:29:57.000Z,20.90
2018-06-19T08:32:25.268Z,20.90
2018-06-19T08:34:53.528Z,20.90
2018-06-19T08:37:21.770Z,20.80
2018-06-19T08:39:50.032Z,20.80
2018-06-19T08:42:18.309Z,20.90
2018-06-19T08:44:46.550Z,21.10
2018-06-19T08:49:42.827Z,21.20
2018-06-19T08:52:11.279Z,21.10
2018-06-19T08:54:39.517Z,21.20
2018-06-19T08:57:07.768Z,21.20
2018-06-19T08:59:36.099Z,21.30
2018-06-19T09:02:04.399Z,21.40
2018-06-19T09:04:32.693Z,21.50
2018-06-19T09:07:00.988Z,21.60
2018-06-19T09:09:29.269Z,21.60
2018-06-19T09:11:57.483Z,21.60
2018-06-19T09:14:25.809Z,21.60
2018-06-19T09:16:54.057Z,21.60
2018-06-19T09:19:22.329Z,21.60
2018-06-19T09:21:50.584Z,21.50
2018-06-19T09:24:18.950Z,21.50
2018-06-19T09:26:47.145Z,21.60
2018-06-19T09:29:15.451Z,21.60
2018-06-19T09:31:43.860Z,21.60
2018-06-19T09:34:12.172Z,21.60
2018-06-19T09:36:47.231Z,21.60
2018-06-19T09:39:15.503Z,21.70
2018-06-19T09:41:44.784Z,21.90
2018-06-19T09:44:13.115Z,22.20
2018-06-19T09:46:41.673Z,22.40
2018-06-19T09:49:09.996Z,22.60
2018-06-19T09:51:39.018Z,22.80
2018-06-19T09:54:07.273Z,22.80
2018-06-19T09:56:35.544Z,22.70
2018-06-19T09:59:04.204Z,22.70
2018-06-19T10:01:32.503Z,22.80
2018-06-19T10:04:00.768Z,22.90
2018-06-19T10:06:29.285Z,23.00
2018-06-19T10:08:57.491Z,23.00
2018-06-19T10:11:25.804Z,23.10
2018-06-19T10:13:54.085Z,23.10
2018-06-19T10:16:22.355Z,23.10
2018-06-19T10:18:50.636Z,23.10
2018-06-19T10:21:18.936Z,23.20
2018-06-19T10:23:47.239Z,23.40
2018-06-19T10:26:16.059Z,23.70
2018-06-19T10:28:44.369Z,23.90
2018-06-19T10:31:12.679Z,24.20
2018-06-19T10:33:40.933Z,24.50
2018-06-19T10:36:09.204Z,24.70
2018-06-19T10:38:37.476Z,24.90
2018-06-19T10:41:05.725Z,25.20
2018-06-19T10:43:33.996Z,25.40
2018-06-19T10:46:02.230Z,25.20
2018-06-19T10:48:30.479Z,24.90
2018-06-19T10:50:58.783Z,24.60
2018-06-19T10:53:27.048Z,24.30
2018-06-19T10:55:55.314Z,24.00
2018-06-19T10:58:23.563Z,23.70
2018-06-19T11:00:51.815Z,23.50
2018-06-19T11:03:20.096Z,23.50
2018-06-19T11:05:48.371Z,23.40
2018-06-19T11:08:16.657Z,23.50
2018-06-19T11:13:12.958Z,23.60
2018-06-19T11:15:41.256Z,23.80
2018-06-19T11:18:09.501Z,23.90
2018-06-19T11:20:37.955Z,24.00
2018-06-19T11:23:06.228Z,23.90
2018-06-19T11:25:34.506Z,23.90
2018-06-19T11:28:02.799Z,24.00
2018-06-19T11:30:31.064Z,24.10
2018-06-19T11:32:59.352Z,24.20
2018-06-19T11:35:27.604Z,24.30
2018-06-19T11:37:55.875Z,24.20
2018-06-19T11:40:24.150Z,24.20
2018-06-19T11:42:52.387Z,24.20
2018-06-19T11:45:20.658Z,24.10
2018-06-19T11:47:48.902Z,24.00
2018-06-19T11:52:45.255Z,24.00
2018-06-19T11:55:13.524Z,23.90
2018-06-19T12:00:09.856Z,23.90
2018-06-19T12:02:38.100Z,24.00
2018-06-19T12:05:06.396Z,24.20
2018-06-19T12:07:39.964Z,24.30
2018-06-19T12:10:08.525Z,24.30
2018-06-19T12:12:36.880Z,24.30
2018-06-19T12:15:05.270Z,24.40
2018-06-19T12:17:33.504Z,24.60
2018-06-19T12:20:01.920Z,24.70
2018-06-19T12:22:30.223Z,24.90
2018-06-19T12:24:58.761Z,25.10
2018-06-19T12:27:27.056Z,25.20
2018-06-19T12:29:55.322Z,25.30
2018-06-19T12:32:23.869Z,25.40
2018-06-19T12:34:52.108Z,25.50
2018-06-19T12:39:48.409Z,25.30
2018-06-19T12:42:16.653Z,25.10
2018-06-19T12:44:44.944Z,24.90
2018-06-19T12:47:13.244Z,24.70
2018-06-19T12:52:26.299Z,24.70
2018-06-19T12:55:20.521Z,24.90
2018-06-19T12:57:48.937Z,25.20
2018-06-19T13:00:17.212Z,25.60
2018-06-19T13:02:56.879Z,25.90
2018-06-19T13:05:36.512Z,26.10
2018-06-19T13:08:04.917Z,26.20
2018-06-19T13:10:33.183Z,26.30
2018-06-19T13:13:22.880Z,26.40
2018-06-19T13:15:52.106Z,26.40
2018-06-19T13:18:32.899Z,26.30
2018-06-19T13:21:01.381Z,26.30
2018-06-19T13:23:29.862Z,26.20
2018-06-19T13:25:58.145Z,26.00
2018-06-19T13:28:38.259Z,25.80
2018-06-19T13:31:17.983Z,25.70
2018-06-19T13:33:46.250Z,25.40
2018-06-19T13:36:14.642Z,25.00
2018-06-19T13:38:42.912Z,24.70
2018-06-19T13:41:23.864Z,24.50
2018-06-19T13:44:06.058Z,24.20
2018-06-19T13:46:34.362Z,24.00
2018-06-19T13:49:02.752Z,23.90
2018-06-19T13:51:31.044Z,23.90
2018-06-19T13:53:59.330Z,24.00
2018-06-19T13:57:43.492Z,24.20
2018-06-19T14:02:42.130Z,25.60
2018-06-19T14:05:10.997Z,26.50
2018-06-19T14:07:48.508Z,26.80
2018-06-19T14:10:28.790Z,26.90
2018-06-19T14:12:58.412Z,26.50
2018-06-19T14:15:27.868Z,26.00
2018-06-19T14:17:56.292Z,25.50
2018-06-19T14:20:24.579Z,25.00
2018-06-19T14:22:52.822Z,24.70
2018-06-19T14:25:21.404Z,24.40
2018-06-19T14:27:49.669Z,24.20
2018-06-19T14:30:18.048Z,24.00
2018-06-19T14:32:46.823Z,23.80
2018-06-19T14:37:43.584Z,23.50
2018-06-19T14:40:11.973Z,23.30
2018-06-19T14:42:40.257Z,23.20
2018-06-19T14:45:09.360Z,23.10
2018-06-19T14:47:37.620Z,23.00
2018-06-19T14:50:05.916Z,23.00
2018-06-19T14:52:34.187Z,23.00
2018-06-19T14:55:02.516Z,23.00
2018-06-19T14:57:30.787Z,23.30
2018-06-19T14:59:59.244Z,23.70
2018-06-19T15:02:27.473Z,24.60
2018-06-19T15:04:55.712Z,26.90
2018-06-19T15:07:24.028Z,28.20
2018-06-19T15:09:52.904Z,29.30
2018-06-19T15:12:21.269Z,29.40
2018-06-19T15:14:49.530Z,29.20
2018-06-19T15:17:17.825Z,28.70
2018-06-19T15:19:46.088Z,28.30
2018-06-19T15:22:14.347Z,27.90
2018-06-19T15:24:42.620Z,27.80
2018-06-19T15:27:10.876Z,27.80
2018-06-19T15:29:39.231Z,27.50
2018-06-19T15:32:07.495Z,27.00
2018-06-19T15:34:35.780Z,26.60
2018-06-19T15:37:04.029Z,26.20
2018-06-19T15:39:32.288Z,25.80
2018-06-19T15:42:00.531Z,25.50
2018-06-19T15:44:28.847Z,25.20
2018-06-19T15:46:57.163Z,25.00
2018-06-19T15:49:25.442Z,24.90
2018-06-19T15:51:53.815Z,24.70
2018-06-19T15:54:22.160Z,24.50
2018-06-19T15:56:50.492Z,24.40
2018-06-19T15:59:18.964Z,24.40
2018-06-19T16:01:47.266Z,24.40
2018-06-19T16:04:17.649Z,24.50
2018-06-19T16:06:46.207Z,24.70
2018-06-19T16:09:14.499Z,24.80
2018-06-19T16:11:42.772Z,24.90
2018-06-19T16:14:11.058Z,25.00
2018-06-19T16:16:39.360Z,25.00
2018-06-19T16:19:07.620Z,24.90
2018-06-19T16:21:35.880Z,24.90
2018-06-19T16:24:04.136Z,24.90
2018-06-19T16:26:32.376Z,25.00
2018-06-19T16:29:01.732Z,25.00
2018-06-19T16:31:29.992Z,24.90
2018-06-19T16:33:58.276Z,24.90
2018-06-19T16:36:26.544Z,24.80
2018-06-19T16:38:54.799Z,24.70
2018-06-19T16:41:23.164Z,24.60
2018-06-19T16:43:51.492Z,24.50
2018-06-19T16:46:19.904Z,24.50
2018-06-19T16:48:48.188Z,24.50
2018-06-19T16:51:16.455Z,24.50
2018-06-19T16:53:44.752Z,24.50
2018-06-19T16:56:13.624Z,24.50
2018-06-19T16:58:41.883Z,24.50
2018-06-19T17:01:10.175Z,24.50
2018-06-19T17:03:38.489Z,24.50
2018-06-19T17:06:06.768Z,24.40
2018-06-19T17:08:35.007Z,24.40
2018-06-19T17:11:04.037Z,24.30
2018-06-19T17:13:32.460Z,24.30
2018-06-19T17:18:29.774Z,24.10
2018-06-19T17:20:58.626Z,24.00
2018-06-19T17:23:27.435Z,23.90
2018-06-19T17:25:56.032Z,23.80
2018-06-19T17:28:24.686Z,23.80
2018-06-19T17:30:53.168Z,23.80
2018-06-19T17:33:21.427Z,23.70
2018-06-19T17:35:50.477Z,23.60
2018-06-19T17:40:47.448Z,23.60
2018-06-19T17:43:16.175Z,23.60
2018-06-19T17:45:44.856Z,23.50
2018-06-19T17:48:13.363Z,23.40
2018-06-19T17:50:41.628Z,23.30
2018-06-19T17:53:10.829Z,23.30
2018-06-19T17:55:39.832Z,23.30
2018-06-19T17:58:08.459Z,23.20
2018-06-19T18:00:37.013Z,23.20
2018-06-19T18:03:05.828Z,23.20
2018-06-19T18:08:02.100Z,23.20
2018-06-19T18:10:30.425Z,23.20
2018-06-19T18:15:26.827Z,23.20
2018-06-19T18:17:55.083Z,23.20
2018-06-19T18:20:23.473Z,23.10
2018-06-19T18:22:51.746Z,23.00
2018-06-19T18:25:19.992Z,23.00
2018-06-19T18:27:48.256Z,23.00
2018-06-19T18:30:16.533Z,23.00
2018-06-19T18:32:44.766Z,22.90
2018-06-19T18:35:13.008Z,22.80
2018-06-19T18:37:41.252Z,22.80
2018-06-19T18:40:09.524Z,22.70
2018-06-19T18:42:37.759Z,22.70
2018-06-19T18:45:06.041Z,22.70
2018-06-19T18:47:34.371Z,22.70
2018-06-19T18:50:02.747Z,22.70
2018-06-19T18:52:31.220Z,22.60
2018-06-19T18:54:59.500Z,22.60
2018-06-19T18:57:27.779Z,22.60
2018-06-19T18:59:56.020Z,22.60
2018-06-19T19:02:24.267Z,22.60
2018-06-19T19:04:52.550Z,22.60
2018-06-19T19:07:20.792Z,22.60
2018-06-19T19:09:54.492Z,22.50
2018-06-19T19:12:22.713Z,22.50
2018-06-19T19:14:56.259Z,22.50
2018-06-19T19:17:29.941Z,22.40
2018-06-19T19:19:58.406Z,22.40
2018-06-19T19:22:26.757Z,22.40
2018-06-19T19:24:54.982Z,22.40
2018-06-19T19:27:28.703Z,22.40
2018-06-19T19:29:56.958Z,22.40
2018-06-19T19:34:53.169Z,22.40
2018-06-19T19:37:26.765Z,22.40
2018-06-19T19:39:55.007Z,22.30
2018-06-19T19:42:23.476Z,22.30
2018-06-19T19:44:51.710Z,22.30
2018-06-19T19:47:25.271Z,22.20
2018-06-19T19:49:53.734Z,22.20
2018-06-19T19:52:21.971Z,22.20
2018-06-19T19:54:50.200Z,22.20
2018-06-19T19:57:23.784Z,22.20
2018-06-19T19:59:52.074Z,22.20
2018-06-19T20:02:20.313Z,22.20
2018-06-19T20:04:48.563Z,22.20
2018-06-19T20:07:16.892Z,22.10
2018-06-19T20:09:45.184Z,22.10
2018-06-19T20:12:13.596Z,22.10
2018-06-19T20:14:41.848Z,22.10
2018-06-19T20:17:10.140Z,22.20
2018-06-19T20:19:38.531Z,22.20
2018-06-19T20:22:07.729Z,22.20
2018-06-19T20:24:35.979Z,22.20
2018-06-19T20:27:04.231Z,22.10
2018-06-19T20:29:32.498Z,22.10
2018-06-19T20:32:01.157Z,22.10
2018-06-19T20:34:29.444Z,22.10
2018-06-19T20:36:57.686Z,22.20
2018-06-19T20:42:00.799Z,22.20
2018-06-19T20:44:29.091Z,22.30
2018-06-19T20:46:57.335Z,22.20
2018-06-19T20:49:25.655Z,22.30
2018-06-19T20:51:54.143Z,22.30
2018-06-19T20:54:22.425Z,22.30
2018-06-19T20:56:50.737Z,22.30
2018-06-19T20:59:19.189Z,22.30
2018-06-19T21:01:47.450Z,22.30
2018-06-19T21:04:15.732Z,22.30
2018-06-19T21:06:43.980Z,22.30
2018-06-19T21:09:12.236Z,22.30
2018-06-19T21:11:40.512Z,22.30
2018-06-19T21:14:08.744Z,22.30
2018-06-19T21:16:37.008Z,22.20
2018-06-19T21:19:05.427Z,22.20
2018-06-19T21:21:33.648Z,22.20
2018-06-19T21:24:01.934Z,22.20
2018-06-19T21:26:30.188Z,22.20
2018-06-19T21:28:58.474Z,22.20
2018-06-19T21:31:26.749Z,22.20
2018-06-19T21:33:55.102Z,22.20
2018-06-19T21:36:23.366Z,22.20
2018-06-19T21:38:51.612Z,22.20
2018-06-19T21:41:19.916Z,22.20
2018-06-19T21:43:48.143Z,22.20
2018-06-19T21:46:16.396Z,22.20
2018-06-19T21:48:44.647Z,22.20
2018-06-19T21:51:12.894Z,22.10
2018-06-19T21:53:41.544Z,22.10
2018-06-19T21:56:09.785Z,22.10
2018-06-19T21:58:38.064Z,22.10
2018-06-19T22:01:06.445Z,22.10
2018-06-19T22:03:34.723Z,22.10
2018-06-19T22:06:03.032Z,22.00
2018-06-19T22:08:36.696Z,22.00
2018-06-19T22:11:05.184Z,22.00
2018-06-19T22:13:33.611Z,21.90
2018-06-19T22:16:01.957Z,21.90
2018-06-19T22:18:30.432Z,21.90
2018-06-19T22:20:58.689Z,21.90
2018-06-19T22:23:26.944Z,21.90
2018-06-19T22:25:55.189Z,22.00
2018-06-19T22:28:23.469Z,22.00
2018-06-19T22:30:51.723Z,22.00
2018-06-19T22:33:19.970Z,22.00
2018-06-19T22:38:16.268Z,22.00
2018-06-19T22:40:44.703Z,21.90
2018-06-19T22:43:12.963Z,21.90
2018-06-19T22:45:41.241Z,21.90
2018-06-19T22:48:09.534Z,21.80
2018-06-19T22:50:37.800Z,21.90
2018-06-19T22:53:06.374Z,21.90
2018-06-19T22:55:34.752Z,21.80
2018-06-19T22:58:03.032Z,21.80
2018-06-19T23:00:31.299Z,21.80
2018-06-19T23:03:02.804Z,21.70
2018-06-19T23:05:31.216Z,21.80
2018-06-19T23:07:59.668Z,21.80
2018-06-19T23:10:28.687Z,21.70
2018-06-19T23:12:57.012Z,21.70
2018-06-19T23:15:25.469Z,21.70
2018-06-19T23:17:54.004Z,21.70
2018-06-19T23:20:22.321Z,21.70
2018-06-19T23:22:51.413Z,21.70
2018-06-19T23:25:20.076Z,21.70
2018-06-19T23:27:48.352Z,21.70
2018-06-19T23:30:17.864Z,21.70
2018-06-19T23:32:46.125Z,21.70
2018-06-19T23:35:14.391Z,21.70
2018-06-19T23:37:43.106Z,21.70
2018-06-19T23:40:11.461Z,21.70
2018-06-19T23:42:39.743Z,21.60
2018-06-19T23:47:36.056Z,21.70
2018-06-19T23:50:04.452Z,21.70
2018-06-19T23:52:32.725Z,21.60
2018-06-19T23:55:01.011Z,21.60
2018-06-19T23:57:29.347Z,21.60
2018-06-19T23:59:57.776Z,21.60
